Time;durP1;ratioP1;P1;durP2;ratioP2;P2;SDS_P1;SDS_P2;PMS_P1;PMS_P2;Temp;Humidity;BMP_temperature;BMP_pressure;BME280_temperature;BME280_humidity;BME280_pressure;Samples;Min_cycle;Max_cycle;Signal;HPM_P1;HPM_P2
2022/04/12 00:01:40;;;;;;;2.80;0.90;;;14.70;99.90;;;;;;5093920;28;20024;-70
2022/04/12 00:04:06;;;;;;;0.00;0.00;;;14.60;99.90;;;;;;5093369;28;20031;-70
2022/04/12 00:06:32;;;;;;;0.00;0.00;;;14.60;99.90;;;;;;5093631;28;20020;-70
2022/04/12 00:08:58;;;;;;;0.00;0.00;;;14.50;99.90;;;;;;5093334;28;20039;-71
2022/04/12 00:11:25;;;;;;;0.10;0.10;;;14.50;99.90;;;;;;5093185;28;20020;-70
2022/04/12 00:13:50;;;;;;;0.30;0.30;;;14.40;99.90;;;;;;5093344;28;20486;-74
2022/04/12 00:16:16;;;;;;;0.00;0.00;;;14.40;99.90;;;;;;5093797;28;20073;-70
2022/04/12 00:21:26;;;;;;;0.45;0.20;;;14.40;99.90;;;;;;5093501;28;20034;-70
2022/04/12 00:23:52;;;;;;;0.22;0.22;;;14.30;99.90;;;;;;5093362;28;20402;-71
2022/04/12 00:26:17;;;;;;;0.00;0.00;;;14.40;99.90;;;;;;5093406;28;20024;-70
2022/04/12 00:28:43;;;;;;;1.98;1.10;;;14.30;99.90;;;;;;5092974;28;20032;-70
2022/04/12 00:31:09;;;;;;;0.03;0.00;;;14.30;99.90;;;;;;5093874;28;20483;-76
2022/04/12 00:33:35;;;;;;;0.45;0.05;;;14.20;99.90;;;;;;5071299;28;20035;-70
2022/04/12 00:36:04;;;;;;;0.38;0.38;;;14.10;99.90;;;;;;5073262;28;20028;-75
2022/04/12 00:38:33;;;;;;;0.80;0.45;;;14.10;99.90;;;;;;5089180;28;20082;-75
2022/04/12 00:41:00;;;;;;;6.22;1.75;;;14.10;99.90;;;;;;5092774;28;20034;-70
2022/04/12 00:43:29;;;;;;;0.00;0.00;;;14.10;99.90;;;;;;5093541;28;20032;-71
2022/04/12 00:46:00;;;;;;;0.08;0.08;;;14.10;99.90;;;;;;5093137;28;20043;-71
2022/04/12 00:48:27;;;;;;;0.00;0.00;;;14.10;99.90;;;;;;5092840;28;20129;-70
2022/04/12 00:50:53;;;;;;;0.63;0.40;;;14.10;99.90;;;;;;5092322;28;20012;-71
2022/04/12 00:53:19;;;;;;;0.00;0.00;;;14.10;99.90;;;;;;5082852;28;20028;-71
2022/04/12 00:55:45;;;;;;;0.00;0.00;;;14.10;99.90;;;;;;5072808;28;20479;-71
2022/04/12 00:58:11;;;;;;;0.20;0.20;;;13.80;99.90;;;;;;5072686;28;20035;-70
2022/04/12 01:00:37;;;;;;;0.00;0.00;;;13.80;99.90;;;;;;5073028;28;20028;-70
2022/04/12 01:03:04;;;;;;;0.45;0.38;;;13.70;99.90;;;;;;5071721;28;20025;-71
2022/04/12 01:05:30;;;;;;;0.00;0.00;;;13.80;99.90;;;;;;5072971;28;20059;-71
2022/04/12 01:07:56;;;;;;;0.70;0.17;;;13.80;99.90;;;;;;5072876;28;20053;-72
2022/04/12 01:10:23;;;;;;;4.28;0.13;;;13.80;99.90;;;;;;5072434;28;20024;-71
2022/04/12 01:12:51;;;;;;;1.75;0.43;;;13.80;99.90;;;;;;5072314;28;20503;-71
2022/04/12 01:15:22;;;;;;;1.00;0.45;;;13.90;99.90;;;;;;5072584;28;20407;-71
2022/04/12 01:17:49;;;;;;;0.17;0.15;;;13.90;99.90;;;;;;5072741;28;20024;-75
2022/04/12 01:20:18;;;;;;;0.22;0.22;;;13.90;99.90;;;;;;5072530;28;20486;-71
2022/04/12 01:22:55;;;;;;;1.10;1.00;;;13.60;99.90;;;;;;5072732;28;20530;-71
2022/04/12 01:25:23;;;;;;;0.20;0.10;;;13.30;99.90;;;;;;5072644;28;20025;-71
2022/04/12 01:27:48;;;;;;;0.00;0.00;;;12.90;99.90;;;;;;5072689;28;20484;-75
2022/04/12 01:30:15;;;;;;;0.00;0.00;;;12.60;99.90;;;;;;5074947;28;20028;-71
2022/04/12 01:32:40;;;;;;;0.00;0.00;;;12.50;99.90;;;;;;5063995;28;20013;-71
2022/04/12 01:35:07;;;;;;;0.00;0.00;;;12.40;99.90;;;;;;5055795;28;20543;-71
2022/04/12 01:37:32;;;;;;;0.10;0.10;;;12.40;99.90;;;;;;5063528;28;20029;-71
2022/04/12 01:39:58;;;;;;;0.00;0.00;;;12.50;99.90;;;;;;5076044;28;20142;-71
2022/04/12 01:42:24;;;;;;;0.00;0.00;;;12.40;99.90;;;;;;5076255;28;20024;-75
2022/04/12 01:44:49;;;;;;;0.43;0.43;;;12.40;99.90;;;;;;5081868;28;20044;-70
2022/04/12 01:47:17;;;;;;;0.10;0.10;;;12.50;99.90;;;;;;5096666;28;20028;-75
2022/04/12 01:49:42;;;;;;;0.00;0.00;;;12.50;99.90;;;;;;5096553;28;20012;-71
2022/04/12 01:52:10;;;;;;;0.00;0.00;;;12.60;99.90;;;;;;5095055;28;20030;-71
2022/04/12 01:54:36;;;;;;;0.10;0.10;;;12.60;99.90;;;;;;5096146;28;20020;-70
2022/04/12 01:57:02;;;;;;;0.00;0.00;;;12.60;99.90;;;;;;5095672;28;20030;-74
2022/04/12 01:59:28;;;;;;;0.00;0.00;;;12.70;99.90;;;;;;5077794;28;20028;-71
2022/04/12 02:01:54;;;;;;;0.05;0.05;;;12.80;99.90;;;;;;5096271;28;20023;-75
2022/04/12 02:04:19;;;;;;;0.00;0.00;;;12.80;99.90;;;;;;5095712;28;20027;-70
2022/04/12 02:06:45;;;;;;;0.00;0.00;;;12.70;99.90;;;;;;5095984;28;20479;-70
2022/04/12 02:09:11;;;;;;;0.00;0.00;;;12.80;99.90;;;;;;5095815;28;20028;-70
2022/04/12 02:11:36;;;;;;;1.85;0.57;;;12.90;99.90;;;;;;5095566;28;20073;-70
2022/04/12 02:14:02;;;;;;;0.00;0.00;;;12.80;99.90;;;;;;5094883;28;20031;-75
2022/04/12 02:16:28;;;;;;;0.00;0.00;;;12.80;99.90;;;;;;5096109;28;20024;-75
2022/04/12 02:18:53;;;;;;;0.00;0.00;;;12.80;99.90;;;;;;5095047;28;20039;-70
2022/04/12 02:21:19;;;;;;;0.00;0.00;;;12.80;99.90;;;;;;5095360;28;20122;-74
2022/04/12 02:23:44;;;;;;;0.00;0.00;;;12.80;99.90;;;;;;5095432;28;20031;-70
2022/04/12 02:26:10;;;;;;;0.00;0.00;;;12.80;99.90;;;;;;5095434;28;20444;-70
2022/04/12 02:28:36;;;;;;;0.10;0.10;;;12.80;99.90;;;;;;5095245;28;20077;-75
2022/04/12 02:31:01;;;;;;;0.00;0.00;;;12.80;99.90;;;;;;5094733;28;20021;-70
2022/04/12 02:33:27;;;;;;;0.00;0.00;;;12.80;99.90;;;;;;5075922;28;20032;-74
2022/04/12 02:35:53;;;;;;;0.00;0.00;;;12.70;99.90;;;;;;5074911;28;20103;-74
2022/04/12 02:38:18;;;;;;;0.10;0.10;;;12.60;99.90;;;;;;5089808;28;20028;-71
2022/04/12 02:40:44;;;;;;;0.00;0.00;;;12.60;99.90;;;;;;5094087;28;20478;-70
2022/04/12 02:43:10;;;;;;;0.00;0.00;;;12.60;99.90;;;;;;5095206;28;20070;-70
2022/04/12 02:45:36;;;;;;;0.00;0.00;;;12.60;99.90;;;;;;5094986;28;20051;-71
2022/04/12 02:48:01;;;;;;;0.00;0.00;;;12.50;99.90;;;;;;5093588;28;20032;-71
2022/04/12 02:50:27;;;;;;;0.00;0.00;;;12.50;99.90;;;;;;5095261;28;20013;-75
2022/04/12 02:52:53;;;;;;;0.10;0.10;;;12.50;99.90;;;;;;5094495;28;20081;-71
2022/04/12 02:55:18;;;;;;;0.68;0.50;;;12.50;99.90;;;;;;5094368;28;20028;-71
2022/04/12 02:57:44;;;;;;;0.00;0.00;;;12.50;99.90;;;;;;5094700;28;20031;-71
2022/04/12 03:00:10;;;;;;;0.28;0.28;;;12.50;99.90;;;;;;5094733;28;20509;-70
2022/04/12 03:02:36;;;;;;;0.00;0.00;;;12.50;99.90;;;;;;5094755;28;20024;-70
2022/04/12 03:05:02;;;;;;;0.00;0.00;;;12.50;99.90;;;;;;5094187;28;20028;-71
2022/04/12 03:07:27;;;;;;;0.00;0.00;;;12.40;99.90;;;;;;5094699;28;20024;-71
2022/04/12 03:09:56;;;;;;;0.22;0.22;;;12.40;99.90;;;;;;5094495;28;20027;-70
2022/04/12 03:12:21;;;;;;;0.05;0.05;;;12.30;99.90;;;;;;5094358;28;20047;-71
2022/04/12 03:14:47;;;;;;;0.00;0.00;;;12.30;99.90;;;;;;5094277;28;20517;-75
2022/04/12 03:17:13;;;;;;;0.65;0.57;;;12.20;99.90;;;;;;5094357;28;20108;-70
2022/04/12 03:19:38;;;;;;;0.00;0.00;;;12.20;99.90;;;;;;5093572;28;20536;-70
2022/04/12 03:22:04;;;;;;;0.10;0.10;;;12.10;99.90;;;;;;5093889;28;20024;-70
2022/04/12 03:24:31;;;;;;;0.17;0.17;;;12.00;99.90;;;;;;5094307;28;20035;-70
2022/04/12 03:26:59;;;;;;;0.10;0.10;;;11.90;99.90;;;;;;5094090;28;20022;-74
2022/04/12 03:29:27;;;;;;;0.00;0.00;;;11.80;99.90;;;;;;5094307;28;20028;-75
2022/04/12 03:31:53;;;;;;;0.00;0.00;;;11.80;99.90;;;;;;5088680;28;20487;-70
2022/04/12 03:34:19;;;;;;;0.40;0.38;;;11.70;99.90;;;;;;5073453;28;20028;-70
2022/04/12 03:36:46;;;;;;;5.47;1.67;;;11.60;99.90;;;;;;5075428;28;20089;-74
2022/04/12 03:39:17;;;;;;;0.10;0.10;;;11.60;99.90;;;;;;5093980;28;20030;-70
2022/04/12 03:41:47;;;;;;;0.00;0.00;;;11.60;99.90;;;;;;5094167;28;20024;-70
2022/04/12 03:44:13;;;;;;;0.20;0.20;;;11.60;99.90;;;;;;5093923;28;20032;-70
2022/04/12 03:46:39;;;;;;;0.00;0.00;;;11.60;99.90;;;;;;5093881;28;20051;-70
2022/04/12 03:49:05;;;;;;;0.00;0.00;;;11.60;99.90;;;;;;5093497;28;20028;-74
2022/04/12 03:51:30;;;;;;;0.00;0.00;;;11.50;99.90;;;;;;5114221;28;20048;-70
2022/04/12 03:53:57;;;;;;;0.38;0.38;;;11.50;99.90;;;;;;5097265;28;20074;-70
2022/04/12 03:56:22;;;;;;;0.00;0.00;;;11.50;99.90;;;;;;5093470;28;20016;-70
2022/04/12 03:58:48;;;;;;;0.00;0.00;;;11.40;99.90;;;;;;5093122;28;20024;-74
2022/04/12 04:01:14;;;;;;;0.20;0.20;;;11.40;99.90;;;;;;5093431;28;20028;-74
2022/04/12 04:03:40;;;;;;;10.95;0.40;;;11.40;99.90;;;;;;5075414;28;20035;-70
2022/04/12 04:06:05;;;;;;;0.43;0.20;;;11.40;99.90;;;;;;5094273;28;20476;-70
2022/04/12 04:08:31;;;;;;;0.00;0.00;;;11.50;99.90;;;;;;5093651;28;20089;-70
2022/04/12 04:10:57;;;;;;;0.00;0.00;;;11.50;99.90;;;;;;5093296;28;20024;-75
2022/04/12 04:13:26;;;;;;;0.05;0.05;;;11.50;99.90;;;;;;5074363;28;20028;-70
2022/04/12 04:15:53;;;;;;;0.00;0.00;;;11.50;99.90;;;;;;5093598;28;20491;-70
2022/04/12 04:18:18;;;;;;;0.45;0.45;;;11.50;99.90;;;;;;5092767;28;20046;-74
2022/04/12 04:20:44;;;;;;;0.00;0.00;;;11.50;99.90;;;;;;5093779;28;20024;-75
2022/04/12 04:23:10;;;;;;;0.00;0.00;;;11.60;99.90;;;;;;5093358;28;20031;-70
2022/04/12 04:25:36;;;;;;;0.15;0.10;;;11.70;99.90;;;;;;5093500;28;20065;-76
2022/04/12 04:28:05;;;;;;;0.00;0.00;;;11.70;99.90;;;;;;5093425;28;20492;-70
2022/04/12 04:30:33;;;;;;;0.70;0.70;;;11.80;99.90;;;;;;5093220;28;20022;-74
2022/04/12 04:32:59;;;;;;;0.80;0.80;;;11.90;99.90;;;;;;5077492;28;20090;-74
2022/04/12 04:35:25;;;;;;;3.10;1.98;;;11.90;99.90;;;;;;5073200;28;20394;-70
2022/04/12 04:37:51;;;;;;;0.00;0.00;;;11.90;99.90;;;;;;5083956;28;20028;-70
2022/04/12 04:40:19;;;;;;;0.35;0.35;;;11.90;99.90;;;;;;5093256;28;20031;-70
2022/04/12 04:42:45;;;;;;;0.20;0.20;;;11.90;99.90;;;;;;5093203;28;20027;-74
2022/04/12 04:45:12;;;;;;;3.30;1.55;;;11.80;99.90;;;;;;5084336;28;20049;-74
2022/04/12 04:47:58;;;;;;;0.05;0.05;;;11.80;99.90;;;;;;5072944;28;20032;-70
2022/04/12 04:50:25;;;;;;;0.08;0.08;;;11.80;99.90;;;;;;5054913;28;20020;-70
2022/04/12 04:52:52;;;;;;;0.20;0.20;;;11.80;99.90;;;;;;5072018;28;20081;-70
2022/04/12 04:55:18;;;;;;;0.25;0.15;;;11.80;99.90;;;;;;5072733;28;20020;-74
2022/04/12 04:57:45;;;;;;;0.00;0.00;;;11.70;99.90;;;;;;5072759;28;20146;-75
2022/04/12 05:00:16;;;;;;;0.00;0.00;;;11.80;99.90;;;;;;5072525;28;20391;-74
2022/04/12 05:02:48;;;;;;;0.30;0.30;;;11.80;99.90;;;;;;5051293;28;20047;-74
2022/04/12 05:05:15;;;;;;;0.00;0.00;;;11.70;99.90;;;;;;5077621;28;20032;-75
2022/04/12 05:07:42;;;;;;;0.00;0.00;;;11.70;99.90;;;;;;5075273;28;20032;-75
2022/04/12 05:10:12;;;;;;;1.45;0.52;;;11.70;99.90;;;;;;5076067;28;20518;-74
2022/04/12 05:12:38;;;;;;;0.00;0.00;;;11.60;99.90;;;;;;5075922;28;20055;-74
2022/04/12 05:15:04;;;;;;;0.10;0.10;;;11.50;99.90;;;;;;5076178;28;20048;-71
2022/04/12 05:17:30;;;;;;;2.30;0.68;;;11.50;99.90;;;;;;5076644;28;20025;-75
2022/04/12 05:19:58;;;;;;;0.38;0.38;;;11.50;99.90;;;;;;5075004;28;20502;-71
2022/04/12 05:22:25;;;;;;;1.27;1.20;;;11.40;99.90;;;;;;5075774;28;20024;-75
2022/04/12 05:24:51;;;;;;;1.25;0.35;;;11.50;99.90;;;;;;5076215;28;20020;-75
2022/04/12 05:27:17;;;;;;;0.00;0.00;;;11.50;99.90;;;;;;5075728;28;20036;-76
2022/04/12 05:29:43;;;;;;;0.00;0.00;;;11.50;99.90;;;;;;5075793;28;20101;-75
2022/04/12 05:32:09;;;;;;;0.00;0.00;;;11.50;99.90;;;;;;5068228;28;20028;-71
2022/04/12 05:34:42;;;;;;;0.00;0.00;;;11.60;99.90;;;;;;5037586;28;20507;-75
2022/04/12 05:37:08;;;;;;;;;;;11.60;99.90;;;;;;5073455;28;20498;-70
2022/04/12 05:39:34;;;;;;;0.47;0.47;;;11.70;99.90;;;;;;5075325;28;19905;-70
2022/04/12 05:42:00;;;;;;;0.00;0.00;;;11.70;99.90;;;;;;5074736;28;20518;-71
2022/04/12 05:44:32;;;;;;;0.00;0.00;;;11.70;99.90;;;;;;5072458;28;20399;-70
2022/04/12 05:47:02;;;;;;;1.15;0.75;;;11.80;99.90;;;;;;5071226;28;20035;-71
2022/04/12 05:49:28;;;;;;;0.00;0.00;;;11.80;99.90;;;;;;5094911;28;20403;-74
2022/04/12 05:51:55;;;;;;;21.65;0.88;;;11.80;99.90;;;;;;5094752;28;20103;-70
2022/04/12 05:54:21;;;;;;;4.05;1.75;;;11.90;99.90;;;;;;5089503;28;20024;-70
2022/04/12 05:56:47;;;;;;;0.25;0.25;;;11.90;99.90;;;;;;5086179;28;20025;-75
2022/04/12 05:59:12;;;;;;;0.68;0.20;;;11.90;99.90;;;;;;5068117;28;20333;-71
2022/04/12 06:01:38;;;;;;;0.50;0.50;;;12.00;99.90;;;;;;5073559;28;20028;-71
2022/04/12 06:04:07;;;;;;;1.02;0.80;;;12.00;99.90;;;;;;5073385;28;20036;-70
2022/04/12 06:06:33;;;;;;;0.10;0.10;;;12.00;99.90;;;;;;5077446;28;20017;-71
2022/04/12 06:09:00;;;;;;;4.85;1.23;;;12.00;99.90;;;;;;5074053;28;20400;-70
2022/04/12 06:11:26;;;;;;;0.10;0.10;;;12.00;99.90;;;;;;5077599;28;20031;-74
2022/04/12 06:13:52;;;;;;;0.00;0.00;;;12.10;99.90;;;;;;5078697;28;20024;-74
2022/04/12 06:16:17;;;;;;;1.00;0.75;;;12.10;99.90;;;;;;5080482;28;20343;-70
2022/04/12 06:18:43;;;;;;;0.10;0.10;;;12.10;99.90;;;;;;5071219;28;20078;-70
2022/04/12 06:21:09;;;;;;;2.45;1.10;;;12.20;99.90;;;;;;5074867;28;20036;-70
2022/04/12 06:23:35;;;;;;;2.13;1.25;;;12.20;99.90;;;;;;5084016;28;20036;-70
2022/04/12 06:26:00;;;;;;;0.25;0.25;;;12.20;99.90;;;;;;5073365;28;20490;-69
2022/04/12 06:28:26;;;;;;;13.32;1.20;;;12.20;99.90;;;;;;5082613;28;20036;-70
2022/04/12 06:30:54;;;;;;;0.55;0.55;;;12.20;99.90;;;;;;5057181;28;20125;-75
2022/04/12 06:33:19;;;;;;;0.10;0.10;;;12.30;99.90;;;;;;5078583;28;20078;-74
2022/04/12 06:35:45;;;;;;;1.85;0.70;;;12.30;99.90;;;;;;5083709;28;20021;-70
2022/04/12 06:38:11;;;;;;;0.00;0.00;;;12.40;99.90;;;;;;5092360;28;20125;-75
2022/04/12 06:40:38;;;;;;;0.00;0.00;;;12.40;99.90;;;;;;5092807;28;20028;-71
2022/04/12 06:43:04;;;;;;;0.32;0.32;;;12.50;99.90;;;;;;5080183;28;20090;-71
2022/04/12 06:45:29;;;;;;;1.02;0.57;;;12.50;99.90;;;;;;5043471;28;20044;-71
2022/04/12 06:48:00;;;;;;;0.20;0.20;;;12.60;99.90;;;;;;5078155;28;20093;-71
2022/04/12 06:50:27;;;;;;;0.00;0.00;;;12.60;99.90;;;;;;5086167;28;20039;-70
2022/04/12 06:52:54;;;;;;;0.00;0.00;;;12.60;99.90;;;;;;5072881;28;20411;-75
2022/04/12 06:55:20;;;;;;;2.45;0.65;;;12.70;99.90;;;;;;5074656;28;20028;-70
2022/04/12 06:57:46;;;;;;;0.00;0.00;;;12.80;99.90;;;;;;5072400;28;20036;-74
2022/04/12 07:00:12;;;;;;;0.40;0.40;;;12.90;99.90;;;;;;5071083;28;20075;-71
2022/04/12 07:02:38;;;;;;;1.13;0.98;;;13.00;99.90;;;;;;5074165;28;20082;-71
2022/04/12 07:05:05;;;;;;;0.30;0.25;;;13.10;99.90;;;;;;5069784;28;20109;-71
2022/04/12 07:07:31;;;;;;;0.17;0.17;;;13.30;99.90;;;;;;5073506;28;20123;-74
2022/04/12 07:09:57;;;;;;;0.10;0.10;;;13.40;99.90;;;;;;5068417;28;20458;-70
2022/04/12 07:12:24;;;;;;;0.45;0.10;;;13.50;99.90;;;;;;5068858;28;20129;-70
2022/04/12 07:14:50;;;;;;;0.65;0.65;;;13.80;99.90;;;;;;5069024;28;20387;-71
2022/04/12 07:17:16;;;;;;;1.27;0.52;;;13.80;99.90;;;;;;5070454;28;20099;-73
2022/04/12 07:19:41;;;;;;;0.00;0.00;;;13.70;99.90;;;;;;5069964;28;20024;-70
2022/04/12 07:22:09;;;;;;;0.20;0.20;;;13.70;99.90;;;;;;5069732;28;20037;-71
2022/04/12 07:24:35;;;;;;;0.00;0.00;;;13.60;99.90;;;;;;5071104;28;20025;-70
2022/04/12 07:27:00;;;;;;;0.00;0.00;;;13.50;99.90;;;;;;5068889;28;20032;-72
2022/04/12 07:29:26;;;;;;;9.95;0.93;;;13.40;99.90;;;;;;5075868;28;20024;-70
2022/04/12 07:31:52;;;;;;;0.00;0.00;;;13.40;99.90;;;;;;5068015;28;20094;-71
2022/04/12 07:34:17;;;;;;;1.02;0.15;;;13.30;99.90;;;;;;5068492;28;20247;-71
2022/04/12 07:37:04;;;;;;;0.05;0.05;;;13.30;99.90;;;;;;5068898;28;20032;-70
2022/04/12 07:39:29;;;;;;;0.00;0.00;;;13.40;99.90;;;;;;5050642;28;20574;-74
2022/04/12 07:41:54;;;;;;;14.18;2.10;;;13.40;99.90;;;;;;5061915;28;20044;-74
2022/04/12 07:44:21;;;;;;;0.17;0.17;;;13.40;99.90;;;;;;5070965;28;20077;-74
2022/04/12 07:46:47;;;;;;;0.00;0.00;;;13.40;99.90;;;;;;5090464;28;20036;-75
2022/04/12 07:49:13;;;;;;;0.90;0.35;;;13.40;99.90;;;;;;5089725;28;20089;-74
2022/04/12 07:51:39;;;;;;;0.00;0.00;;;13.40;99.90;;;;;;5089117;28;20016;-71
2022/04/12 07:54:06;;;;;;;0.00;0.00;;;13.40;99.90;;;;;;5089372;28;20395;-75
2022/04/12 07:56:32;;;;;;;1.65;1.33;;;13.40;99.90;;;;;;5105698;28;20043;-71
2022/04/12 07:58:59;;;;;;;0.52;0.40;;;13.40;99.90;;;;;;5090682;28;20086;-74
2022/04/12 08:01:24;;;;;;;0.00;0.00;;;13.40;99.90;;;;;;5086864;28;20032;-71
2022/04/12 08:03:50;;;;;;;0.10;0.10;;;13.40;99.90;;;;;;5092585;28;20359;-71
2022/04/12 08:06:16;;;;;;;1.45;1.30;;;13.50;99.90;;;;;;5093686;28;20487;-74
2022/04/12 08:08:41;;;;;;;0.35;0.35;;;13.50;99.90;;;;;;5088599;28;20035;-74
2022/04/12 08:11:07;;;;;;;0.15;0.15;;;13.50;99.90;;;;;;5088500;28;20510;-75
2022/04/12 08:13:33;;;;;;;0.20;0.20;;;13.50;99.90;;;;;;5090678;28;20103;-76
2022/04/12 08:15:59;;;;;;;0.00;0.00;;;13.60;99.90;;;;;;5090005;28;20368;-70
2022/04/12 08:18:25;;;;;;;0.55;0.22;;;13.50;99.90;;;;;;5096432;28;20019;-74
2022/04/12 08:20:51;;;;;;;0.25;0.22;;;13.60;99.90;;;;;;5093834;28;20050;-75
2022/04/12 08:23:17;;;;;;;0.13;0.13;;;13.60;99.90;;;;;;5090222;28;20402;-71
2022/04/12 08:25:43;;;;;;;0.10;0.05;;;13.60;99.90;;;;;;5095845;28;20107;-74
2022/04/12 08:28:09;;;;;;;1.58;0.43;;;13.50;99.90;;;;;;5099812;28;20438;-75
2022/04/12 08:30:36;;;;;;;0.15;0.15;;;13.50;99.90;;;;;;5092966;28;20028;-71
2022/04/12 08:33:02;;;;;;;1.25;0.38;;;13.60;99.90;;;;;;5089634;28;20032;-76
2022/04/12 08:35:28;;;;;;;29.25;2.30;;;13.60;99.90;;;;;;5089241;28;20162;-71
2022/04/12 08:37:54;;;;;;;1.55;0.17;;;13.70;99.90;;;;;;5095949;28;20458;-71
2022/04/12 08:40:20;;;;;;;2.38;1.13;;;13.80;99.90;;;;;;5102972;28;20036;-75
2022/04/12 08:42:47;;;;;;;29.50;2.17;;;13.90;99.90;;;;;;5093746;28;20034;-71
2022/04/12 08:45:13;;;;;;;0.00;0.00;;;13.90;99.90;;;;;;5093421;28;20048;-75
2022/04/12 08:47:40;;;;;;;0.20;0.20;;;13.80;99.90;;;;;;5093121;28;20040;-75
2022/04/12 08:50:07;;;;;;;0.00;0.00;;;13.80;99.90;;;;;;5099109;28;20160;-75
2022/04/12 08:52:35;;;;;;;2.55;1.05;;;13.90;99.90;;;;;;5092827;28;20110;-71
2022/04/12 08:55:01;;;;;;;0.00;0.00;;;13.80;99.90;;;;;;5092021;28;20028;-76
2022/04/12 08:57:28;;;;;;;17.40;1.38;;;13.90;99.90;;;;;;5074193;28;20028;-74
2022/04/12 08:59:54;;;;;;;3.90;0.32;;;14.00;99.90;;;;;;5100087;28;20480;-75
2022/04/12 09:02:20;;;;;;;0.00;0.00;;;14.00;99.90;;;;;;5096393;28;20027;-75
2022/04/12 09:04:46;;;;;;;2.25;0.45;;;14.00;99.90;;;;;;5097575;28;20040;-71
2022/04/12 09:07:12;;;;;;;0.32;0.32;;;13.90;99.90;;;;;;5100416;28;20024;-71
2022/04/12 09:09:40;;;;;;;0.30;0.30;;;13.90;99.90;;;;;;5091358;28;20078;-71
2022/04/12 09:12:09;;;;;;;2.30;1.00;;;13.90;99.90;;;;;;5092877;28;20032;-75
2022/04/12 09:14:46;;;;;;;30.60;1.40;;;14.10;99.90;;;;;;5094201;28;20539;-72
2022/04/12 09:17:19;;;;;;;2.40;0.50;;;14.20;99.90;;;;;;5095810;28;20107;-71
2022/04/12 09:19:51;;;;;;;0.10;0.10;;;14.40;99.90;;;;;;5094984;28;20031;-71
2022/04/12 09:22:25;;;;;;;0.00;0.00;;;14.70;99.90;;;;;;5093062;28;20097;-74
2022/04/12 09:24:54;;;;;;;0.10;0.10;;;14.90;99.90;;;;;;5093375;28;20094;-74
2022/04/12 09:27:28;;;;;;;0.30;0.30;;;14.80;99.90;;;;;;5093011;28;20028;-71
2022/04/12 09:30:01;;;;;;;6.97;0.52;;;14.80;99.90;;;;;;5091132;28;20074;-75
2022/04/12 09:32:28;;;;;;;1.58;0.93;;;14.80;99.90;;;;;;5092341;28;20103;-74
2022/04/12 09:34:55;;;;;;;0.32;0.13;;;14.90;99.90;;;;;;5091750;28;20024;-71
2022/04/12 09:37:25;;;;;;;0.32;0.22;;;15.10;99.90;;;;;;5092547;28;20020;-74
2022/04/12 09:40:00;;;;;;;17.67;0.38;;;15.20;99.90;;;;;;5090443;28;20429;-74
2022/04/12 09:42:52;;;;;;;1.55;1.20;;;15.30;99.90;;;;;;5093110;28;20070;-71
2022/04/12 09:45:19;;;;;;;0.00;0.00;;;15.50;99.90;;;;;;5090718;28;20051;-71
2022/04/12 09:47:47;;;;;;;0.10;0.10;;;15.40;99.90;;;;;;5089129;28;20446;-73
2022/04/12 09:50:13;;;;;;;0.00;0.00;;;15.30;99.90;;;;;;5092334;28;20493;-74
2022/04/12 09:52:51;;;;;;;0.00;0.00;;;15.10;99.90;;;;;;5077190;28;20020;-75
2022/04/12 09:55:31;;;;;;;0.00;0.00;;;15.10;99.90;;;;;;5097194;28;20028;-71
2022/04/12 09:57:57;;;;;;;0.40;0.40;;;15.20;99.90;;;;;;5091362;28;20032;-71
2022/04/12 10:00:23;;;;;;;4.40;1.77;;;15.30;99.90;;;;;;5086784;28;20078;-71
2022/04/12 10:02:49;;;;;;;0.00;0.00;;;15.30;99.90;;;;;;5092234;28;20032;-74
2022/04/12 10:05:14;;;;;;;1.60;0.82;;;15.20;99.90;;;;;;5093481;28;20028;-74
2022/04/12 10:07:40;;;;;;;6.03;0.85;;;15.10;99.90;;;;;;5097364;28;20036;-71
2022/04/12 10:10:06;;;;;;;0.20;0.20;;;15.00;99.90;;;;;;5098988;28;20027;-74
2022/04/12 10:12:35;;;;;;;0.32;0.32;;;15.00;99.90;;;;;;5092357;28;20111;-71
2022/04/12 10:15:01;;;;;;;1.75;0.68;;;15.00;99.90;;;;;;5086174;28;20055;-71
2022/04/12 10:17:27;;;;;;;0.00;0.00;;;14.90;99.90;;;;;;5075629;28;20465;-74
2022/04/12 10:19:54;;;;;;;0.57;0.45;;;14.80;99.90;;;;;;5072047;28;20020;-72
2022/04/12 10:22:20;;;;;;;6.72;1.67;;;14.80;99.90;;;;;;5088070;28;20020;-74
2022/04/12 10:24:46;;;;;;;0.00;0.00;;;14.80;99.90;;;;;;5083261;28;20046;-74
2022/04/12 10:27:12;;;;;;;0.10;0.10;;;14.70;99.90;;;;;;5096038;28;20122;-71
2022/04/12 10:29:37;;;;;;;0.32;0.32;;;14.60;99.90;;;;;;5078803;28;20545;-72
2022/04/12 10:32:05;;;;;;;0.32;0.32;;;14.60;99.90;;;;;;5091234;28;20028;-72
2022/04/12 10:34:31;;;;;;;0.77;0.77;;;14.50;99.90;;;;;;5082455;28;20153;-72
2022/04/12 10:37:09;;;;;;;0.35;0.35;;;14.40;99.90;;;;;;5088316;28;20028;-72
2022/04/12 10:39:46;;;;;;;3.38;0.38;;;14.30;99.90;;;;;;5095457;28;20025;-72
2022/04/12 10:42:33;;;;;;;13.68;2.38;;;14.30;99.90;;;;;;5082133;28;20039;-72
2022/04/12 10:45:02;;;;;;;0.00;0.00;;;14.30;99.90;;;;;;5078089;28;20059;-72
2022/04/12 10:47:37;;;;;;;0.30;0.30;;;14.30;99.90;;;;;;5068787;28;20408;-75
2022/04/12 10:50:08;;;;;;;0.45;0.43;;;14.40;99.90;;;;;;5062135;28;20031;-74
2022/04/12 10:52:51;;;;;;;0.25;0.25;;;14.40;99.90;;;;;;5065409;28;20031;-75
2022/04/12 10:55:19;;;;;;;1.67;0.52;;;14.50;99.90;;;;;;5066446;28;20144;-72
2022/04/12 10:57:45;;;;;;;0.57;0.57;;;14.50;99.90;;;;;;5049911;28;20028;-74
2022/04/12 11:00:18;;;;;;;0.10;0.10;;;14.50;99.90;;;;;;5067455;28;20108;-71
2022/04/12 11:02:54;;;;;;;0.00;0.00;;;14.50;99.90;;;;;;5062978;28;20446;-72
2022/04/12 11:05:35;;;;;;;0.20;0.20;;;14.60;99.90;;;;;;5069746;28;20087;-71
2022/04/12 11:08:25;;;;;;;0.30;0.30;;;14.60;99.90;;;;;;5071985;28;20036;-76
2022/04/12 11:10:51;;;;;;;0.32;0.32;;;14.60;99.90;;;;;;5043462;28;20029;-76
2022/04/12 11:13:21;;;;;;;0.30;0.30;;;14.70;99.90;;;;;;5052408;28;20028;-72
2022/04/12 11:15:55;;;;;;;0.00;0.00;;;14.80;99.90;;;;;;5068379;28;20630;-71
2022/04/12 11:18:20;;;;;;;0.10;0.10;;;14.80;99.90;;;;;;5065327;28;20032;-74
2022/04/12 11:20:59;;;;;;;0.00;0.00;;;14.80;99.90;;;;;;5062489;28;20435;-74
2022/04/12 11:23:45;;;;;;;0.00;0.00;;;14.80;99.90;;;;;;5064981;28;20036;-75
2022/04/12 11:26:48;;;;;;;0.00;0.00;;;14.90;99.90;;;;;;5075097;28;20031;-74
2022/04/12 11:29:17;;;;;;;0.55;0.55;;;14.90;99.90;;;;;;5047807;28;20037;-72
2022/04/12 11:31:45;;;;;;;0.75;0.38;;;15.00;99.90;;;;;;5076303;28;20048;-71
2022/04/12 11:34:12;;;;;;;0.10;0.10;;;15.10;99.90;;;;;;5075682;28;20038;-74
2022/04/12 11:36:39;;;;;;;0.57;0.57;;;15.20;99.90;;;;;;5074679;28;20070;-71
2022/04/12 11:39:06;;;;;;;0.45;0.45;;;15.30;99.90;;;;;;5075314;28;20495;-72
2022/04/12 11:41:32;;;;;;;0.40;0.40;;;15.50;99.90;;;;;;5078114;28;20084;-71
2022/04/12 11:44:02;;;;;;;0.00;0.00;;;15.60;99.90;;;;;;5079540;28;20031;-72
2022/04/12 11:46:35;;;;;;;0.03;0.00;;;15.80;99.90;;;;;;5089552;28;20039;-75
2022/04/12 11:49:03;;;;;;;0.90;0.25;;;15.90;99.90;;;;;;5090766;28;20044;-75
2022/04/12 11:51:29;;;;;;;0.03;0.03;;;16.10;99.90;;;;;;5097554;28;20081;-71
2022/04/12 11:53:55;;;;;;;0.00;0.00;;;16.30;99.90;;;;;;5093539;28;20123;-71
2022/04/12 11:56:20;;;;;;;0.45;0.45;;;16.40;99.90;;;;;;5088787;28;20107;-72
2022/04/12 11:58:46;;;;;;;3.50;0.20;;;16.80;99.90;;;;;;5088933;28;20051;-72
2022/04/12 12:01:13;;;;;;;0.00;0.00;;;17.10;99.90;;;;;;5069431;28;20043;-75
2022/04/12 12:03:42;;;;;;;0.10;0.10;;;17.10;99.90;;;;;;5090542;28;20155;-72
2022/04/12 12:06:09;;;;;;;0.40;0.08;;;17.20;99.90;;;;;;5091133;28;20030;-71
2022/04/12 12:08:34;;;;;;;0.77;0.40;;;17.00;99.90;;;;;;5092951;28;20028;-72
2022/04/12 12:11:12;;;;;;;0.98;0.80;;;17.00;99.90;;;;;;5089904;28;20027;-72
2022/04/12 12:13:37;;;;;;;0.75;0.30;;;17.00;99.90;;;;;;5089249;28;20179;-75
2022/04/12 12:16:23;;;;;;;1.50;1.40;;;17.10;99.90;;;;;;5096330;28;20100;-75
2022/04/12 12:18:50;;;;;;;0.00;0.00;;;16.80;99.90;;;;;;5089064;28;20077;-72
2022/04/12 12:21:19;;;;;;;0.00;0.00;;;17.00;99.90;;;;;;5081700;28;20024;-74
2022/04/12 12:23:45;;;;;;;0.85;0.65;;;17.10;99.90;;;;;;5077716;28;20039;-72
2022/04/12 12:26:11;;;;;;;0.85;0.32;;;17.10;99.90;;;;;;5080549;28;20028;-75
2022/04/12 12:28:40;;;;;;;0.05;0.05;;;17.20;99.90;;;;;;5083796;28;20051;-75
2022/04/12 12:31:07;;;;;;;0.00;0.00;;;17.50;99.90;;;;;;5087650;28;20047;-71
2022/04/12 12:33:46;;;;;;;0.22;0.20;;;17.90;99.90;;;;;;5096877;28;20057;-75
2022/04/12 12:36:20;;;;;;;2.10;0.35;;;17.80;99.90;;;;;;5090218;28;20135;-71
2022/04/12 12:38:46;;;;;;;0.05;0.05;;;17.80;99.90;;;;;;5087805;28;20107;-74
2022/04/12 12:41:26;;;;;;;0.47;0.47;;;18.10;99.90;;;;;;5083429;28;20123;-74
2022/04/12 12:44:02;;;;;;;1.15;0.90;;;17.90;99.90;;;;;;5087665;28;20103;-71
2022/04/12 12:46:32;;;;;;;0.30;0.30;;;17.90;99.90;;;;;;5090666;28;20037;-71
2022/04/12 12:49:08;;;;;;;1.00;0.50;;;18.00;99.90;;;;;;5098893;28;20510;-71
2022/04/12 12:51:36;;;;;;;4.85;1.48;;;18.20;99.90;;;;;;5112758;28;20020;-73
2022/04/12 12:54:03;;;;;;;0.20;0.20;;;18.00;99.90;;;;;;5102800;28;20073;-74